Cecilia, LA (70521)

12:53 AM CDT on May 06, 2015 (GMT -0500)
Pecaniere | | Change Station
CLOSE
Current Station
Personal Weather Station
Location: Arnaudville, LA
Elevation: 30 ft
Nearby Weather Stations

Elev 30 ft 30.43 °N, 91.92 °W | Updated 16 minutes ago

Clear
Clear
68.0 °F
Feels Like 68.0 °F
N
1.1
Wind Variable Wind from SSE

Today
High -- | Low -- °F
--% Chance of Precip.
Yesterday
High -- | Low -- °F
Precip. -- in
6:19 AM 7:48 PM
Waning Gibbous, 95% visible
Pressure 30.10 in
Visibility 10.0 miles
Clouds Clear
Dew Point 62 °F
Humidity 81%
Rainfall 0.00 in
Snow Depth Not available.
UV 0 out of 12
Pollen 6.50 out of 12
Air Quality Not available.
Flu Activity Sporadic
METAR KLFT 060453Z 11003KT 10SM CLR 21/17 A3010 RMK AO2 SLP191 T02060167

More Conditions Fewer Conditions

Pressure 30.10 in
Visibility 10.0 miles
Clouds Clear
Dew Point 62 °F
Humidity 81%
Rainfall 0.00 in
Snow Depth Not available.
UV 0 out of 12
Pollen 6.50 out of 12
Air Quality Not available.
Flu Activity Sporadic
METAR KLFT 060453Z 11003KT 10SM CLR 21/17 A3010 RMK AO2 SLP191 T02060167

More Conditions Fewer Conditions

10-Day Weather Forecast

Almanac

Astronomy

May. 06, 2015 Rise Set
Actual Time
Civil Twilight
Nautical Twilight
Astronomical Twilight
Moon
Length of Visible Light
Length of Day
Tomorrow will be .
, % of the Moon is Illuminated

Today's Extremes

State Highs State Lows

Community

WunderPhotos

Upload Photos

1,818,842 photos uploaded!

WunderBlogs® & News

Nearby

Air Quality

  Air Quality AQ Index Pollutant
Not available.

Snow Depth

Station Depth Elevation

Earthquake Activity

City Distance Mag. Time & Date
Minimum magnitude displayed is 2.5.

Coastal Water Temperatures

Place Temperature

Stations

Nearby Weather Stations

Station Location Temp. Windchill Dew Point Humidity Wind Precip. Elev Updated Type